Time;durP1;ratioP1;P1;durP2;ratioP2;P2;SDS_P1;SDS_P2;PMS_P1;PMS_P2;Temp;Humidity;BMP_temperature;BMP_pressure;BME280_temperature;BME280_humidity;BME280_pressure;Samples;Min_cycle;Max_cycle;Signal;HPM_P1;HPM_P2
2022/10/19 11:34:35;;;;;;;11.15;3.97;;;;;;;;;;6207306;22;20693;-88
2022/10/19 11:37:42;;;;;;;5.50;3.72;;;;;;;;;;6246771;22;20012;-85
2022/10/19 11:40:30;;;;;;;5.65;3.58;;;;;;;;;;6173250;23;20470;-85
2022/10/19 11:43:09;;;;;;;5.28;4.13;;;;;;;;;;6226218;23;20008;-85
2022/10/19 11:45:45;;;;;;;6.65;3.97;;;;;;;;;;6246771;23;20083;-84
2022/10/19 16:58:43;;;;;;;5.80;4.80;;;;;;;;;;6225451;22;20035;-87
2022/10/19 17:01:11;;;;;;;8.13;5.07;;;;;;;;;;6250108;23;20458;-87
2022/10/19 17:03:37;;;;;;;7.15;5.22;;;;;;;;;;6246888;23;20019;-84
2022/10/19 17:06:03;;;;;;;7.13;4.97;;;;;;;;;;6247736;22;20004;-86
2022/10/19 17:08:30;;;;;;;5.75;4.47;;;;;;;;;;6247288;23;20004;-91
2022/10/19 17:10:56;;;;;;;7.35;4.72;;;;;;;;;;6247372;23;20058;-89
2022/10/19 17:13:21;;;;;;;7.53;4.60;;;;;;;;;;6247430;23;20000;-87
2022/10/19 17:15:48;;;;;;;11.07;4.63;;;;;;;;;;6248288;22;20004;-84
2022/10/19 17:18:14;;;;;;;6.35;4.35;;;;;;;;;;6225185;23;20008;-87
2022/10/19 17:20:40;;;;;;;8.25;4.63;;;;;;;;;;6248614;23;20434;-86
2022/10/19 17:23:05;;;;;;;6.32;4.70;;;;;;;;;;6248208;23;20510;-84
2022/10/19 17:25:30;;;;;;;6.20;4.70;;;;;;;;;;6248621;22;20001;-84
2022/10/19 17:27:56;;;;;;;5.53;4.60;;;;;;;;;;6222013;23;20135;-85
2022/10/19 17:30:21;;;;;;;6.38;4.55;;;;;;;;;;6247710;23;20092;-84
2022/10/19 17:32:48;;;;;;;5.07;4.35;;;;;;;;;;6248616;23;20008;-88
2022/10/19 17:35:14;;;;;;;4.90;4.28;;;;;;;;;;6248229;22;20023;-84
2022/10/19 17:37:39;;;;;;;6.30;4.50;;;;;;;;;;6247918;23;20514;-84
2022/10/19 17:40:05;;;;;;;7.22;4.40;;;;;;;;;;6247708;23;20055;-87
2022/10/19 17:42:33;;;;;;;7.35;5.55;;;;;;;;;;6248593;23;20055;-88
2022/10/19 17:44:58;;;;;;;8.30;6.88;;;;;;;;;;6249111;23;20003;-88
2022/10/19 17:47:24;;;;;;;11.48;7.97;;;;;;;;;;6248140;22;20004;-91
2022/10/19 17:49:49;;;;;;;8.43;6.82;;;;;;;;;;6248625;23;20043;-83
2022/10/19 17:52:14;;;;;;;12.35;7.35;;;;;;;;;;6221288;23;20429;-87
2022/10/19 17:54:40;;;;;;;8.80;5.20;;;;;;;;;;6248366;23;20007;-82
2022/10/19 17:57:05;;;;;;;10.40;6.93;;;;;;;;;;6221045;23;20134;-85
2022/10/19 17:59:31;;;;;;;11.40;6.70;;;;;;;;;;6249598;23;20000;-87
2022/10/19 18:01:56;;;;;;;9.10;5.10;;;;;;;;;;6221234;23;20012;-89
2022/10/19 18:04:22;;;;;;;7.10;4.80;;;;;;;;;;6248570;23;20004;-87
2022/10/19 18:06:47;;;;;;;9.02;5.13;;;;;;;;;;6247835;22;20004;-85
2022/10/19 18:09:12;;;;;;;8.07;5.70;;;;;;;;;;6246106;23;20062;-85
2022/10/19 18:11:43;;;;;;;6.68;4.60;;;;;;;;;;6247233;23;20004;-85
2022/10/19 18:14:10;;;;;;;11.55;7.80;;;;;;;;;;6247681;23;20402;-84
2022/10/19 18:16:40;;;;;;;10.43;6.18;;;;;;;;;;6247785;22;20324;-79
2022/10/19 18:19:07;;;;;;;8.52;5.93;;;;;;;;;;6247329;23;20000;-83
2022/10/19 18:21:39;;;;;;;6.95;5.10;;;;;;;;;;6247141;23;20004;-84
2022/10/19 18:24:05;;;;;;;15.57;10.18;;;;;;;;;;6246973;23;20030;-84
2022/10/19 18:26:32;;;;;;;12.65;7.85;;;;;;;;;;6247153;22;20000;-82
2022/10/19 18:29:01;;;;;;;7.15;5.22;;;;;;;;;;6246736;23;20008;-81
2022/10/19 18:31:29;;;;;;;9.48;6.47;;;;;;;;;;6247191;23;20004;-84
2022/10/19 18:34:00;;;;;;;6.72;4.38;;;;;;;;;;6247151;23;20004;-83
2022/10/19 18:36:26;;;;;;;7.97;5.40;;;;;;;;;;6246966;22;19999;-83
2022/10/19 18:38:53;;;;;;;9.27;6.38;;;;;;;;;;6247088;23;20004;-84
2022/10/19 18:41:20;;;;;;;7.97;5.47;;;;;;;;;;6247023;23;20086;-81
2022/10/19 18:43:54;;;;;;;6.18;4.95;;;;;;;;;;6247373;23;20010;-82
2022/10/19 18:46:21;;;;;;;6.35;5.43;;;;;;;;;;6246802;22;20004;-82
2022/10/19 18:48:47;;;;;;;8.80;6.93;;;;;;;;;;6246846;23;20027;-81
2022/10/19 18:51:16;;;;;;;9.27;5.28;;;;;;;;;;6246963;23;20012;-82
2022/10/19 18:53:43;;;;;;;8.38;4.78;;;;;;;;;;6247289;23;19996;-82
2022/10/19 18:56:11;;;;;;;8.75;5.63;;;;;;;;;;6246958;22;20305;-84
2022/10/19 18:58:37;;;;;;;5.13;4.30;;;;;;;;;;6246775;23;20071;-83
2022/10/19 19:01:11;;;;;;;6.60;3.92;;;;;;;;;;6246671;23;20020;-84
2022/10/19 19:03:39;;;;;;;6.50;4.60;;;;;;;;;;6246716;23;20024;-84
2022/10/19 19:06:17;;;;;;;6.85;4.70;;;;;;;;;;6246444;22;20038;-83
2022/10/19 19:08:43;;;;;;;5.28;3.67;;;;;;;;;;6246901;23;20087;-85
2022/10/19 19:11:13;;;;;;;6.68;4.30;;;;;;;;;;6246840;23;20004;-84
2022/10/19 19:13:40;;;;;;;5.93;4.38;;;;;;;;;;6246890;23;20004;-84
2022/10/19 19:16:06;;;;;;;5.45;4.18;;;;;;;;;;6246498;22;20419;-84
2022/10/19 19:18:33;;;;;;;4.95;4.18;;;;;;;;;;6219795;23;20012;-84
2022/10/19 19:20:59;;;;;;;6.03;4.57;;;;;;;;;;6246645;23;20323;-83
2022/10/19 19:23:25;;;;;;;6.88;4.53;;;;;;;;;;6246528;23;20079;-87
2022/10/19 19:25:50;;;;;;;7.47;5.25;;;;;;;;;;6220297;23;20036;-83
2022/10/19 19:28:16;;;;;;;7.32;5.28;;;;;;;;;;6246715;23;20000;-84
2022/10/19 19:30:44;;;;;;;7.28;5.20;;;;;;;;;;6246701;23;20000;-86
2022/10/19 19:33:09;;;;;;;6.38;5.05;;;;;;;;;;6246665;23;20004;-82
2022/10/19 19:35:46;;;;;;;6.75;5.05;;;;;;;;;;6246879;22;20010;-84
2022/10/19 19:38:14;;;;;;;7.97;5.40;;;;;;;;;;6247024;23;20011;-88
2022/10/19 19:40:44;;;;;;;5.72;4.80;;;;;;;;;;6245922;23;20000;-83
2022/10/19 19:43:11;;;;;;;6.75;5.10;;;;;;;;;;6246448;23;20014;-85
2022/10/19 19:45:37;;;;;;;5.75;4.47;;;;;;;;;;6246812;22;20027;-85
2022/10/19 19:48:04;;;;;;;7.63;5.72;;;;;;;;;;6246427;23;20419;-85
2022/10/19 19:50:29;;;;;;;9.38;5.85;;;;;;;;;;6246358;23;20007;-86
2022/10/19 19:52:57;;;;;;;7.68;5.85;;;;;;;;;;6219763;23;19996;-86
2022/10/19 19:55:22;;;;;;;8.48;6.68;;;;;;;;;;6246942;22;20011;-86
2022/10/19 19:57:48;;;;;;;13.38;8.30;;;;;;;;;;6247099;23;20012;-85
2022/10/19 20:00:16;;;;;;;12.10;8.13;;;;;;;;;;6246725;23;20015;-87
2022/10/19 20:02:42;;;;;;;12.50;8.70;;;;;;;;;;6247301;23;20053;-86
2022/10/19 20:05:08;;;;;;;7.57;5.82;;;;;;;;;;6246803;22;20319;-86
2022/10/19 20:07:33;;;;;;;7.68;5.43;;;;;;;;;;6246710;23;20415;-81
2022/10/19 20:09:59;;;;;;;7.68;6.15;;;;;;;;;;6219443;23;20473;-86
2022/10/19 20:12:25;;;;;;;11.13;7.32;;;;;;;;;;6246838;23;20058;-84
2022/10/19 20:14:50;;;;;;;11.70;8.45;;;;;;;;;;6246338;23;20467;-86
2022/10/19 20:17:15;;;;;;;9.43;7.00;;;;;;;;;;6219812;23;20008;-84
2022/10/19 20:19:41;;;;;;;8.38;5.88;;;;;;;;;;6246751;23;20004;-85
2022/10/19 20:22:06;;;;;;;13.95;8.55;;;;;;;;;;6246207;23;20000;-85
2022/10/19 20:24:35;;;;;;;11.65;7.90;;;;;;;;;;6246296;23;20008;-84
2022/10/19 20:27:00;;;;;;;8.70;6.68;;;;;;;;;;6245929;22;20001;-84
2022/10/19 20:29:26;;;;;;;9.68;6.72;;;;;;;;;;6246414;23;20031;-84
2022/10/19 20:31:51;;;;;;;11.73;7.15;;;;;;;;;;6245649;23;20415;-87
2022/10/19 20:34:16;;;;;;;8.85;6.70;;;;;;;;;;6247724;23;19996;-86
2022/10/19 20:36:42;;;;;;;12.15;7.80;;;;;;;;;;6248010;22;20453;-85
2022/10/19 20:39:08;;;;;;;11.93;7.20;;;;;;;;;;6246950;23;20004;-85
2022/10/19 20:41:34;;;;;;;11.80;8.18;;;;;;;;;;6219496;23;20011;-85
2022/10/19 20:43:59;;;;;;;13.90;8.40;;;;;;;;;;6220112;23;20399;-86
2022/10/19 20:46:27;;;;;;;11.02;7.22;;;;;;;;;;6248080;22;20007;-86
2022/10/19 20:48:55;;;;;;;15.73;9.77;;;;;;;;;;6247054;23;20482;-85
2022/10/19 20:51:25;;;;;;;14.23;9.25;;;;;;;;;;6250365;23;20060;-84
2022/10/19 20:53:53;;;;;;;14.15;9.32;;;;;;;;;;6223629;23;20075;-85
2022/10/19 20:56:22;;;;;;;13.18;8.50;;;;;;;;;;6249248;22;19996;-86
2022/10/19 20:58:58;;;;;;;14.50;9.00;;;;;;;;;;6250691;23;20057;-85
2022/10/19 21:01:28;;;;;;;14.63;9.18;;;;;;;;;;6249028;23;20095;-84
2022/10/19 21:03:56;;;;;;;14.00;8.63;;;;;;;;;;6249897;23;20004;-86
2022/10/19 21:06:23;;;;;;;11.27;7.75;;;;;;;;;;6222716;23;20338;-85
2022/10/19 21:08:50;;;;;;;11.30;8.20;;;;;;;;;;6250282;23;20062;-83
2022/10/19 21:11:27;;;;;;;11.30;7.00;;;;;;;;;;6222413;23;20005;-85
2022/10/19 21:13:59;;;;;;;10.23;6.97;;;;;;;;;;6249790;23;20467;-85
2022/10/19 21:16:27;;;;;;;9.35;6.65;;;;;;;;;;6222842;23;20030;-84
2022/10/19 21:18:53;;;;;;;10.88;6.75;;;;;;;;;;6249433;23;20000;-83
2022/10/19 21:21:27;;;;;;;13.07;8.02;;;;;;;;;;6248841;23;20007;-84
2022/10/19 21:24:14;;;;;;;10.27;7.95;;;;;;;;;;6249296;23;20008;-84
2022/10/19 21:26:41;;;;;;;10.88;7.22;;;;;;;;;;6222318;23;20091;-83
2022/10/19 21:29:08;;;;;;;12.23;8.18;;;;;;;;;;6222592;23;20008;-85
2022/10/19 21:31:35;;;;;;;10.68;7.55;;;;;;;;;;6221172;23;20004;-84
2022/10/19 21:34:03;;;;;;;10.10;7.70;;;;;;;;;;6249054;23;20075;-84
2022/10/19 21:36:29;;;;;;;12.13;8.10;;;;;;;;;;6249760;22;20427;-84
2022/10/19 21:38:55;;;;;;;12.07;7.70;;;;;;;;;;6221681;23;20012;-86
2022/10/19 21:41:21;;;;;;;11.00;8.35;;;;;;;;;;6249847;23;20006;-83
2022/10/19 21:43:47;;;;;;;11.50;8.40;;;;;;;;;;6221712;23;20004;-83
2022/10/19 21:46:15;;;;;;;13.38;8.88;;;;;;;;;;6248090;22;20011;-83
2022/10/19 21:48:41;;;;;;;11.70;8.98;;;;;;;;;;6221804;23;20036;-83
2022/10/19 21:51:38;;;;;;;14.13;8.45;;;;;;;;;;6250706;23;20450;-84
2022/10/19 21:54:05;;;;;;;12.77;9.18;;;;;;;;;;6248506;23;20015;-84
2022/10/19 21:56:31;;;;;;;13.93;8.27;;;;;;;;;;6248384;22;20553;-84
2022/10/19 21:59:00;;;;;;;11.57;8.35;;;;;;;;;;6249279;23;20004;-83
2022/10/19 22:01:28;;;;;;;13.70;9.18;;;;;;;;;;6249013;23;20026;-83
2022/10/19 22:03:58;;;;;;;12.88;9.23;;;;;;;;;;6221797;23;20008;-83
2022/10/19 22:06:26;;;;;;;11.48;8.43;;;;;;;;;;6221874;23;20000;-84
2022/10/19 22:08:53;;;;;;;12.25;8.02;;;;;;;;;;6248758;23;20004;-83
2022/10/19 22:11:18;;;;;;;10.65;8.25;;;;;;;;;;6248682;23;20004;-85
2022/10/19 22:13:45;;;;;;;14.18;8.48;;;;;;;;;;6249275;23;20454;-83
2022/10/19 22:16:16;;;;;;;11.25;7.95;;;;;;;;;;6250021;22;20305;-86
2022/10/19 22:18:42;;;;;;;13.65;8.15;;;;;;;;;;6222074;23;20015;-84
2022/10/19 22:21:21;;;;;;;12.75;8.00;;;;;;;;;;6221732;23;19997;-84
2022/10/19 22:23:56;;;;;;;10.30;7.45;;;;;;;;;;6248778;23;20004;-84
2022/10/19 22:26:25;;;;;;;8.80;6.75;;;;;;;;;;6247871;22;20000;-83
2022/10/19 22:28:51;;;;;;;12.37;7.67;;;;;;;;;;6247766;23;20011;-87
2022/10/19 22:31:17;;;;;;;11.02;7.90;;;;;;;;;;6220753;23;20012;-86
2022/10/19 22:33:42;;;;;;;11.60;8.27;;;;;;;;;;6247645;23;20008;-86
2022/10/19 22:36:10;;;;;;;9.43;7.10;;;;;;;;;;6221041;23;20000;-86
2022/10/19 22:38:36;;;;;;;10.52;7.47;;;;;;;;;;6247743;23;20011;-87
